San Antonio, Texas
Traffic Map
Current Weather Conditions
San Antonio, Texas
Clear
Clear
55°
Feels Like: 55°
Wind Chill: 55° Ceiling: Unl
Heat Index: 55° Visibility: 10mi
Dew Point: 51° Wind: 6mph
Humidity: 86% Direction: 180° (S)
Pressure: 30.1in Gusts: 0mph
Raw Report DataKSKF 290558Z AUTO 18005KT 10SM CLR 13/10 A3010 RMK AO2 SLP190 T01270104 10157 20114 402240039 58002 $
Traffic Incident Summary
Active as of:
Severity:
Category:
InformationThere was an issue retrieving the traffic information for this location. Please try a different location or try again shortly.
Advertisements
Track Severe Weather on mobile